Time;durP1;ratioP1;P1;durP2;ratioP2;P2;SDS_P1;SDS_P2;PMS_P1;PMS_P2;Temp;Humidity;BMP_temperature;BMP_pressure;BME280_temperature;BME280_humidity;BME280_pressure;Samples;Min_cycle;Max_cycle;Signal;HPM_P1;HPM_P2
2022/11/29 00:01:11;;;;;;;32.73;15.63;;;;;;;;;;5007118;28;20205;-72
2022/11/29 00:03:36;;;;;;;65.40;21.17;;;;;;;;;;5005318;28;20550;-72
2022/11/29 00:06:09;;;;;;;27.03;14.17;;;;;;;;;;5009354;28;20191;-73
2022/11/29 00:08:35;;;;;;;27.07;13.87;;;;;;;;;;5009514;28;20183;-72
2022/11/29 00:11:08;;;;;;;19.50;13.63;;;;;;;;;;5010174;28;20195;-72
2022/11/29 00:13:33;;;;;;;25.23;14.00;;;;;;;;;;5010849;28;20179;-73
2022/11/29 00:16:08;;;;;;;30.37;15.23;;;;;;;;;;5006171;28;20187;-73
2022/11/29 00:18:34;;;;;;;48.97;17.73;;;;;;;;;;5009848;28;20197;-73
2022/11/29 00:21:03;;;;;;;29.03;14.47;;;;;;;;;;5008711;28;20179;-73
2022/11/29 00:23:28;;;;;;;22.30;13.77;;;;;;;;;;5010641;28;20206;-73
2022/11/29 00:25:53;;;;;;;26.33;13.47;;;;;;;;;;5010890;28;20171;-73
2022/11/29 00:28:18;;;;;;;22.83;13.90;;;;;;;;;;5010961;28;20341;-73
2022/11/29 00:30:44;;;;;;;26.43;14.13;;;;;;;;;;4998457;28;20171;-72
2022/11/29 00:33:09;;;;;;;25.43;14.30;;;;;;;;;;5003211;28;20290;-73
2022/11/29 00:35:34;;;;;;;30.97;15.27;;;;;;;;;;5007702;28;20535;-73
2022/11/29 00:37:59;;;;;;;19.27;12.43;;;;;;;;;;5006159;28;20557;-73
2022/11/29 00:40:24;;;;;;;24.43;12.77;;;;;;;;;;5005455;28;20309;-72
2022/11/29 00:42:49;;;;;;;29.57;13.20;;;;;;;;;;5007370;28;20199;-73
2022/11/29 00:45:15;;;;;;;27.77;14.10;;;;;;;;;;5010566;28;20257;-72
2022/11/29 00:47:40;;;;;;;22.07;13.57;;;;;;;;;;5005116;28;20630;-73
2022/11/29 00:50:06;;;;;;;19.53;12.77;;;;;;;;;;5011255;28;20229;-73
2022/11/29 00:52:31;;;;;;;17.67;12.07;;;;;;;;;;5005803;28;20196;-73
2022/11/29 00:54:56;;;;;;;40.20;15.23;;;;;;;;;;4993355;28;20637;-73
2022/11/29 00:57:21;;;;;;;16.33;12.23;;;;;;;;;;5009136;28;20605;-73
2022/11/29 00:59:47;;;;;;;35.53;14.80;;;;;;;;;;5009843;28;20223;-73
2022/11/29 01:02:12;;;;;;;14.50;10.47;;;;;;;;;;5013365;28;20202;-71
2022/11/29 01:04:37;;;;;;;18.70;12.27;;;;;;;;;;5014155;28;20209;-73
2022/11/29 01:07:02;;;;;;;21.53;12.50;;;;;;;;;;5014374;28;20175;-74
2022/11/29 01:09:27;;;;;;;20.63;12.80;;;;;;;;;;5014203;28;20182;-73
2022/11/29 01:11:52;;;;;;;13.63;10.57;;;;;;;;;;5012549;28;20210;-72
2022/11/29 01:14:18;;;;;;;21.83;11.93;;;;;;;;;;5013943;28;20664;-72
2022/11/29 01:16:43;;;;;;;16.60;10.90;;;;;;;;;;5014060;28;20725;-72
2022/11/29 01:19:08;;;;;;;18.27;11.23;;;;;;;;;;4995562;28;20616;-72
2022/11/29 01:21:34;;;;;;;16.87;10.77;;;;;;;;;;5013178;28;20195;-72
2022/11/29 01:24:00;;;;;;;15.90;10.57;;;;;;;;;;5006970;28;20207;-72
2022/11/29 01:26:27;;;;;;;13.20;10.37;;;;;;;;;;5012671;28;20556;-72
2022/11/29 01:28:53;;;;;;;17.03;12.43;;;;;;;;;;5013411;28;20175;-72
2022/11/29 01:33:54;;;;;;;15.00;10.50;;;;;;;;;;5022518;28;20594;-81
2022/11/29 01:36:19;;;;;;;18.80;12.20;;;;;;;;;;5022930;28;20229;-81
2022/11/29 01:38:44;;;;;;;14.93;11.00;;;;;;;;;;5025640;28;20424;-79
2022/11/29 01:41:12;;;;;;;15.03;10.77;;;;;;;;;;5012440;28;20179;-79
2022/11/29 01:43:53;;;;;;;20.07;11.33;;;;;;;;;;5024641;28;20218;-82
2022/11/29 01:46:18;;;;;;;14.57;10.27;;;;;;;;;;5021702;28;20556;-80
2022/11/29 01:48:43;;;;;;;20.97;12.03;;;;;;;;;;5027509;28;20170;-80
2022/11/29 01:51:09;;;;;;;32.63;12.33;;;;;;;;;;5010104;28;20179;-80
2022/11/29 01:53:34;;;;;;;19.53;12.27;;;;;;;;;;5043553;28;20202;-83
2022/11/29 01:56:02;;;;;;;32.20;12.00;;;;;;;;;;5028114;28;20278;-81
2022/11/29 01:58:27;;;;;;;17.37;11.63;;;;;;;;;;5033301;28;20649;-81
2022/11/29 02:00:53;;;;;;;21.97;12.07;;;;;;;;;;5020288;28;20463;-81
2022/11/29 02:03:18;;;;;;;19.83;11.90;;;;;;;;;;5030420;28;20225;-82
2022/11/29 02:05:45;;;;;;;20.13;11.27;;;;;;;;;;5006082;28;20255;-81
2022/11/29 02:08:12;;;;;;;19.03;12.50;;;;;;;;;;5011505;28;20190;-82
2022/11/29 02:10:40;;;;;;;24.87;11.67;;;;;;;;;;5031843;28;20183;-82
2022/11/29 02:13:22;;;;;;;19.47;11.57;;;;;;;;;;5030372;28;20202;-81
2022/11/29 02:15:47;;;;;;;24.63;12.67;;;;;;;;;;5030234;28;20194;-83
2022/11/29 02:18:24;;;;;;;33.67;14.00;;;;;;;;;;5019961;28;20309;-82
2022/11/29 02:20:49;;;;;;;18.33;11.70;;;;;;;;;;5008916;28;20182;-82
2022/11/29 02:23:38;;;;;;;32.07;14.20;;;;;;;;;;5032263;28;20265;-80
2022/11/29 02:26:09;;;;;;;31.27;12.67;;;;;;;;;;5003887;28;20175;-82
2022/11/29 02:28:34;;;;;;;22.27;13.13;;;;;;;;;;5031073;28;20317;-82
2022/11/29 02:31:18;;;;;;;24.33;12.07;;;;;;;;;;5033752;28;20179;-80
2022/11/29 02:33:58;;;;;;;23.27;13.43;;;;;;;;;;5031220;28;20186;-81
2022/11/29 02:36:33;;;;;;;27.07;13.60;;;;;;;;;;5018412;28;20186;-82
2022/11/29 02:39:23;;;;;;;31.93;12.60;;;;;;;;;;5023304;28;20178;-81
2022/11/29 02:41:54;;;;;;;39.53;14.37;;;;;;;;;;5008037;28;20203;-81
2022/11/29 02:44:26;;;;;;;59.10;16.70;;;;;;;;;;5021584;28;20225;-81
2022/11/29 02:47:06;;;;;;;26.33;13.67;;;;;;;;;;5013330;28;20195;-82
2022/11/29 02:49:44;;;;;;;37.60;14.00;;;;;;;;;;5025144;28;20183;-82
2022/11/29 02:52:14;;;;;;;33.60;14.07;;;;;;;;;;5009498;28;20198;-81
2022/11/29 02:54:51;;;;;;;23.93;13.73;;;;;;;;;;5032884;28;20175;-82
2022/11/29 02:57:22;;;;;;;25.10;13.57;;;;;;;;;;5037224;28;20328;-80
2022/11/29 02:59:50;;;;;;;29.87;13.63;;;;;;;;;;5027423;28;20175;-82
2022/11/29 03:02:18;;;;;;;22.13;12.03;;;;;;;;;;5011780;28;20266;-80
2022/11/29 03:05:02;;;;;;;15.97;12.10;;;;;;;;;;5022600;28;20210;-82
2022/11/29 03:07:30;;;;;;;25.57;13.07;;;;;;;;;;5029260;28;20171;-82
2022/11/29 03:10:00;;;;;;;29.20;13.63;;;;;;;;;;5032818;28;20239;-82
2022/11/29 03:12:31;;;;;;;32.97;14.47;;;;;;;;;;5031229;28;20561;-81
2022/11/29 03:15:11;;;;;;;30.33;11.87;;;;;;;;;;5024094;28;20246;-81
2022/11/29 03:17:45;;;;;;;27.83;12.33;;;;;;;;;;5009680;28;20190;-82
2022/11/29 03:20:29;;;;;;;23.73;12.80;;;;;;;;;;5021435;28;20284;-81
2022/11/29 03:23:05;;;;;;;42.67;13.40;;;;;;;;;;5030992;28;20261;-81
2022/11/29 03:25:33;;;;;;;39.20;13.87;;;;;;;;;;5023603;28;20171;-81
2022/11/29 03:28:18;;;;;;;48.97;13.97;;;;;;;;;;5003919;28;20198;-81
2022/11/29 03:30:48;;;;;;;24.73;12.47;;;;;;;;;;5023606;28;20283;-81
2022/11/29 03:33:13;;;;;;;24.33;12.07;;;;;;;;;;5015835;28;20241;-81
2022/11/29 03:35:38;;;;;;;30.73;13.80;;;;;;;;;;5018724;28;20273;-81
2022/11/29 03:38:15;;;;;;;21.70;12.20;;;;;;;;;;5029453;28;20189;-80
2022/11/29 03:40:44;;;;;;;31.80;12.77;;;;;;;;;;5031562;28;20183;-82
2022/11/29 03:43:13;;;;;;;52.77;16.30;;;;;;;;;;5035078;28;20198;-82
2022/11/29 03:45:38;;;;;;;19.60;12.37;;;;;;;;;;5030283;28;20231;-82
2022/11/29 03:48:08;;;;;;;25.07;13.27;;;;;;;;;;5022316;28;20179;-82
2022/11/29 03:50:37;;;;;;;42.77;15.07;;;;;;;;;;5024767;28;20175;-81
2022/11/29 03:53:14;;;;;;;20.10;12.73;;;;;;;;;;5032848;28;20190;-81
2022/11/29 03:55:53;;;;;;;43.90;14.37;;;;;;;;;;5027629;28;20174;-82
2022/11/29 03:58:21;;;;;;;29.20;14.53;;;;;;;;;;5019610;28;20194;-81
2022/11/29 04:00:46;;;;;;;19.77;12.80;;;;;;;;;;5008185;28;20190;-82
2022/11/29 04:03:30;;;;;;;24.07;13.13;;;;;;;;;;5010547;28;20218;-82
2022/11/29 04:05:55;;;;;;;21.47;13.27;;;;;;;;;;5027437;28;20170;-80
2022/11/29 04:08:36;;;;;;;29.50;15.50;;;;;;;;;;5026904;28;20195;-82
2022/11/29 04:11:04;;;;;;;20.33;12.87;;;;;;;;;;5025204;28;20171;-80
2022/11/29 04:13:42;;;;;;;30.53;14.47;;;;;;;;;;5021719;28;20209;-80
2022/11/29 04:16:20;;;;;;;19.77;12.67;;;;;;;;;;5021889;28;20181;-82
2022/11/29 04:18:53;;;;;;;18.40;12.57;;;;;;;;;;5000828;28;20174;-82
2022/11/29 04:21:37;;;;;;;21.73;12.50;;;;;;;;;;5029266;28;20213;-82
2022/11/29 04:24:27;;;;;;;28.07;13.57;;;;;;;;;;5007263;28;20201;-82
2022/11/29 04:26:56;;;;;;;45.27;16.50;;;;;;;;;;5019027;28;20182;-82
2022/11/29 04:29:44;;;;;;;33.57;13.90;;;;;;;;;;5018314;28;20187;-82
2022/11/29 04:32:20;;;;;;;28.53;13.33;;;;;;;;;;5004739;28;20229;-80
2022/11/29 04:35:14;;;;;;;32.60;13.40;;;;;;;;;;5025614;28;20175;-82
2022/11/29 04:37:59;;;;;;;24.27;12.83;;;;;;;;;;4966183;28;20257;-82
2022/11/29 04:40:30;;;;;;;16.73;11.23;;;;;;;;;;5012393;28;20185;-82
2022/11/29 04:43:13;;;;;;;37.90;14.30;;;;;;;;;;5006187;28;20294;-81
2022/11/29 04:45:41;;;;;;;49.77;16.13;;;;;;;;;;5031130;28;20182;-81
2022/11/29 04:48:20;;;;;;;20.30;12.80;;;;;;;;;;5016081;28;20171;-82
2022/11/29 04:50:50;;;;;;;28.77;13.03;;;;;;;;;;5028350;28;20221;-82
2022/11/29 04:53:31;;;;;;;29.00;14.10;;;;;;;;;;5010852;28;20207;-81
2022/11/29 04:55:56;;;;;;;44.67;15.03;;;;;;;;;;5016837;28;20205;-81
2022/11/29 04:58:27;;;;;;;34.10;12.67;;;;;;;;;;5006366;28;20179;-82
2022/11/29 05:01:00;;;;;;;23.80;12.33;;;;;;;;;;5026693;28;20178;-82
2022/11/29 05:03:48;;;;;;;29.57;13.60;;;;;;;;;;5011510;28;20198;-82
2022/11/29 05:06:34;;;;;;;29.87;12.93;;;;;;;;;;5019121;28;20189;-82
2022/11/29 05:09:02;;;;;;;42.97;16.10;;;;;;;;;;5028897;28;20190;-82
2022/11/29 05:11:43;;;;;;;31.00;13.90;;;;;;;;;;5010551;28;20263;-82
2022/11/29 05:14:27;;;;;;;38.60;14.87;;;;;;;;;;5007274;28;20212;-81
2022/11/29 05:17:10;;;;;;;27.63;12.13;;;;;;;;;;5023510;28;20190;-81
2022/11/29 05:19:54;;;;;;;47.90;16.37;;;;;;;;;;5021995;28;20188;-81
2022/11/29 05:22:24;;;;;;;53.93;14.80;;;;;;;;;;5015499;28;20201;-81
2022/11/29 05:25:04;;;;;;;21.23;12.93;;;;;;;;;;5038034;28;20210;-81
2022/11/29 05:27:35;;;;;;;32.70;14.20;;;;;;;;;;5007072;28;20186;-81
2022/11/29 05:30:05;;;;;;;28.23;13.50;;;;;;;;;;5030755;28;20670;-81
2022/11/29 05:32:40;;;;;;;39.63;14.73;;;;;;;;;;5024311;28;20279;-81
2022/11/29 05:35:24;;;;;;;21.10;13.03;;;;;;;;;;5022877;28;20182;-81
2022/11/29 05:37:51;;;;;;;21.80;12.67;;;;;;;;;;5030931;28;20209;-81
2022/11/29 05:40:35;;;;;;;27.20;11.20;;;;;;;;;;5036240;28;20199;-81
2022/11/29 05:43:00;;;;;;;20.73;12.10;;;;;;;;;;5022514;28;20203;-82
2022/11/29 05:45:32;;;;;;;42.43;14.50;;;;;;;;;;5000670;28;20214;-81
2022/11/29 05:48:06;;;;;;;38.87;13.83;;;;;;;;;;5008801;28;20175;-81
2022/11/29 05:50:35;;;;;;;33.47;13.17;;;;;;;;;;5013378;28;20169;-81
2022/11/29 05:53:19;;;;;;;22.70;11.40;;;;;;;;;;5010563;28;20194;-82
2022/11/29 05:56:04;;;;;;;26.87;11.80;;;;;;;;;;5008665;28;20206;-82
2022/11/29 05:58:47;;;;;;;28.90;13.53;;;;;;;;;;5005876;28;20214;-81
2022/11/29 06:01:18;;;;;;;30.00;12.43;;;;;;;;;;5025577;28;20179;-81
2022/11/29 06:03:51;;;;;;;29.17;11.87;;;;;;;;;;5023278;28;20211;-81
2022/11/29 06:06:29;;;;;;;23.33;11.77;;;;;;;;;;5025563;28;20205;-81
2022/11/29 06:08:59;;;;;;;26.00;12.20;;;;;;;;;;5018398;28;20170;-81
2022/11/29 06:11:31;;;;;;;22.53;12.47;;;;;;;;;;5022372;28;20186;-81
2022/11/29 06:14:07;;;;;;;20.13;11.53;;;;;;;;;;5024312;28;20179;-81
2022/11/29 06:16:42;;;;;;;19.20;11.93;;;;;;;;;;5022462;28;20185;-81
2022/11/29 06:19:26;;;;;;;30.20;12.23;;;;;;;;;;5026584;28;20245;-81
2022/11/29 06:21:51;;;;;;;19.83;11.10;;;;;;;;;;5017502;28;20190;-81
2022/11/29 06:24:22;;;;;;;27.60;10.93;;;;;;;;;;5007559;28;20294;-81
2022/11/29 06:26:50;;;;;;;29.53;12.40;;;;;;;;;;5005939;28;20230;-81
2022/11/29 06:29:22;;;;;;;16.17;9.20;;;;;;;;;;5000697;28;20198;-81
2022/11/29 06:31:51;;;;;;;24.10;12.40;;;;;;;;;;5003649;28;20226;-81
2022/11/29 06:34:19;;;;;;;32.27;12.57;;;;;;;;;;5022675;28;20229;-81
2022/11/29 06:36:51;;;;;;;21.97;11.70;;;;;;;;;;5008606;28;20174;-80
2022/11/29 06:39:16;;;;;;;28.87;12.03;;;;;;;;;;5014642;28;20203;-81
2022/11/29 06:41:41;;;;;;;26.87;11.23;;;;;;;;;;5024544;28;20447;-81
2022/11/29 06:44:07;;;;;;;22.73;11.40;;;;;;;;;;5028025;28;20566;-81
2022/11/29 06:46:32;;;;;;;29.07;11.67;;;;;;;;;;5019223;28;20555;-81
2022/11/29 06:49:01;;;;;;;24.83;12.33;;;;;;;;;;5033472;28;20182;-81
2022/11/29 06:51:38;;;;;;;23.27;11.87;;;;;;;;;;5022838;28;20550;-81
2022/11/29 06:54:12;;;;;;;23.37;11.47;;;;;;;;;;5002262;28;20228;-81
2022/11/29 06:56:42;;;;;;;30.13;12.10;;;;;;;;;;5025773;28;20179;-81
2022/11/29 06:59:07;;;;;;;31.77;12.17;;;;;;;;;;5025924;28;20182;-81
2022/11/29 07:01:41;;;;;;;28.67;11.77;;;;;;;;;;5023354;28;20180;-81
2022/11/29 07:04:25;;;;;;;25.40;10.40;;;;;;;;;;5007657;28;20206;-81
2022/11/29 07:06:51;;;;;;;20.53;10.70;;;;;;;;;;5022903;28;20207;-81
2022/11/29 07:09:17;;;;;;;19.50;11.50;;;;;;;;;;5023504;28;20536;-81
2022/11/29 07:11:43;;;;;;;34.10;11.10;;;;;;;;;;5007705;28;20190;-81
2022/11/29 07:14:09;;;;;;;27.50;12.93;;;;;;;;;;4996347;28;20204;-81
2022/11/29 07:16:49;;;;;;;28.23;11.67;;;;;;;;;;5009665;28;20190;-81
2022/11/29 07:19:23;;;;;;;23.40;10.43;;;;;;;;;;4999749;28;20202;-81
2022/11/29 07:21:48;;;;;;;25.00;11.63;;;;;;;;;;5014992;28;20198;-80
2022/11/29 07:24:19;;;;;;;23.60;11.53;;;;;;;;;;5023173;28;20203;-81
2022/11/29 07:26:44;;;;;;;18.27;10.13;;;;;;;;;;5007696;28;20229;-81
2022/11/29 07:29:24;;;;;;;20.03;10.77;;;;;;;;;;5022915;28;20174;-81
2022/11/29 07:31:56;;;;;;;19.53;10.17;;;;;;;;;;5029010;28;20198;-81
2022/11/29 07:34:30;;;;;;;24.10;10.93;;;;;;;;;;5010803;28;20249;-81
2022/11/29 07:37:05;;;;;;;20.90;11.17;;;;;;;;;;5029378;28;20311;-81
2022/11/29 07:39:43;;;;;;;34.80;12.73;;;;;;;;;;5021411;28;20189;-82
2022/11/29 07:42:19;;;;;;;28.63;12.20;;;;;;;;;;5018416;28;20207;-80
2022/11/29 07:44:44;;;;;;;23.40;11.43;;;;;;;;;;4999942;28;20285;-82
2022/11/29 07:47:09;;;;;;;21.23;11.13;;;;;;;;;;5010563;28;20171;-82
2022/11/29 07:49:35;;;;;;;26.43;10.97;;;;;;;;;;5037885;28;20249;-81
2022/11/29 07:52:00;;;;;;;33.40;12.37;;;;;;;;;;5016368;28;20241;-82
2022/11/29 07:54:25;;;;;;;22.00;10.63;;;;;;;;;;5015990;28;20186;-81
2022/11/29 07:56:50;;;;;;;23.37;10.37;;;;;;;;;;5003308;28;20183;-81
2022/11/29 07:59:16;;;;;;;28.40;11.43;;;;;;;;;;5008091;28;20174;-82
2022/11/29 08:01:41;;;;;;;29.07;12.40;;;;;;;;;;5020086;28;20249;-81
2022/11/29 08:04:06;;;;;;;35.17;13.73;;;;;;;;;;5014826;28;20211;-81
2022/11/29 08:06:32;;;;;;;26.30;10.17;;;;;;;;;;5008593;28;20190;-81
2022/11/29 08:08:58;;;;;;;23.83;10.07;;;;;;;;;;5022026;28;20637;-81
2022/11/29 08:11:23;;;;;;;18.60;10.93;;;;;;;;;;5018004;28;20611;-82
2022/11/29 08:13:48;;;;;;;50.07;12.77;;;;;;;;;;5033678;28;20194;-82
2022/11/29 08:16:14;;;;;;;21.13;9.57;;;;;;;;;;5013199;28;20208;-81
2022/11/29 08:18:39;;;;;;;24.43;10.43;;;;;;;;;;5021680;28;20209;-81
2022/11/29 08:21:06;;;;;;;33.07;12.73;;;;;;;;;;5003384;28;20418;-81
2022/11/29 08:23:31;;;;;;;27.43;10.90;;;;;;;;;;5023990;28;20222;-81
2022/11/29 08:26:00;;;;;;;39.00;11.13;;;;;;;;;;5016548;28;20548;-82
2022/11/29 08:28:25;;;;;;;19.57;10.20;;;;;;;;;;5007419;28;20191;-81
2022/11/29 08:30:50;;;;;;;30.53;9.33;;;;;;;;;;5014693;28;20259;-81
2022/11/29 08:33:15;;;;;;;35.27;12.17;;;;;;;;;;5023886;28;20218;-81
2022/11/29 08:35:41;;;;;;;24.03;9.40;;;;;;;;;;5009429;28;20174;-81
2022/11/29 08:38:06;;;;;;;25.90;10.93;;;;;;;;;;5003295;28;20182;-81
2022/11/29 08:40:31;;;;;;;22.97;9.90;;;;;;;;;;5001414;28;20657;-80
2022/11/29 08:42:57;;;;;;;30.23;10.87;;;;;;;;;;5014910;28;20598;-80
2022/11/29 08:45:22;;;;;;;21.80;9.77;;;;;;;;;;5025907;28;20651;-81
2022/11/29 08:47:47;;;;;;;18.90;9.47;;;;;;;;;;5019960;28;20190;-81
2022/11/29 08:50:14;;;;;;;18.27;8.43;;;;;;;;;;5004159;28;20205;-80
2022/11/29 08:55:25;;;;;;;24.93;9.50;;;;;;;;;;5022026;28;20186;-80
2022/11/29 08:57:51;;;;;;;21.43;9.43;;;;;;;;;;5004854;28;20174;-80
2022/11/29 09:00:17;;;;;;;26.40;9.80;;;;;;;;;;5031713;28;20272;-81
2022/11/29 09:02:42;;;;;;;25.23;9.80;;;;;;;;;;5023614;28;20361;-82
2022/11/29 09:05:08;;;;;;;30.43;10.63;;;;;;;;;;5009696;28;20211;-81
2022/11/29 09:07:34;;;;;;;27.30;9.40;;;;;;;;;;5005124;28;20189;-81
2022/11/29 09:10:03;;;;;;;17.63;10.07;;;;;;;;;;5009080;28;20178;-81
2022/11/29 09:12:29;;;;;;;20.70;9.80;;;;;;;;;;5008423;28;20627;-81
2022/11/29 09:14:54;;;;;;;17.90;9.53;;;;;;;;;;5032376;28;20202;-81
2022/11/29 09:17:19;;;;;;;21.20;9.00;;;;;;;;;;5010370;28;20232;-81
2022/11/29 09:19:45;;;;;;;19.40;9.17;;;;;;;;;;5021381;28;20240;-81
2022/11/29 09:22:10;;;;;;;19.80;9.67;;;;;;;;;;5031883;28;20258;-81
2022/11/29 09:24:35;;;;;;;16.07;9.30;;;;;;;;;;5039237;28;20224;-81
2022/11/29 09:27:00;;;;;;;19.70;9.37;;;;;;;;;;5027107;28;20183;-81
2022/11/29 09:29:25;;;;;;;16.87;9.33;;;;;;;;;;5014417;28;20174;-81
2022/11/29 09:31:50;;;;;;;17.13;9.60;;;;;;;;;;5028042;28;20210;-81
2022/11/29 09:34:17;;;;;;;14.87;8.43;;;;;;;;;;5006678;28;20190;-81
2022/11/29 09:36:46;;;;;;;17.70;8.87;;;;;;;;;;5019968;28;20179;-81
2022/11/29 09:39:11;;;;;;;17.67;9.10;;;;;;;;;;5033306;28;20185;-81
2022/11/29 09:41:49;;;;;;;13.53;8.37;;;;;;;;;;5024735;28;20202;-81
2022/11/29 09:44:21;;;;;;;13.87;8.63;;;;;;;;;;5020930;28;20191;-81
2022/11/29 09:46:46;;;;;;;14.33;8.60;;;;;;;;;;5007416;28;20190;-81
2022/11/29 09:49:23;;;;;;;18.53;9.63;;;;;;;;;;5022122;28;20175;-81
2022/11/29 09:51:48;;;;;;;18.23;9.57;;;;;;;;;;5001501;28;20269;-81
2022/11/29 09:54:19;;;;;;;21.90;9.70;;;;;;;;;;5009357;28;20226;-81
2022/11/29 09:56:46;;;;;;;18.97;9.67;;;;;;;;;;5006482;28;20194;-80
2022/11/29 09:59:15;;;;;;;15.17;8.00;;;;;;;;;;5032547;28;20695;-81
2022/11/29 10:01:49;;;;;;;14.30;8.17;;;;;;;;;;5019259;28;20203;-81
2022/11/29 10:04:19;;;;;;;14.57;8.73;;;;;;;;;;5004099;28;20226;-81
2022/11/29 10:06:49;;;;;;;20.27;8.50;;;;;;;;;;5006998;28;20183;-81
2022/11/29 10:09:28;;;;;;;19.80;9.07;;;;;;;;;;5022613;28;20178;-80
2022/11/29 10:12:06;;;;;;;17.03;8.73;;;;;;;;;;5022369;28;20253;-79
2022/11/29 10:14:37;;;;;;;14.17;8.40;;;;;;;;;;5005409;28;20183;-79
2022/11/29 10:17:12;;;;;;;18.33;9.07;;;;;;;;;;5029185;28;20191;-79
2022/11/29 10:19:46;;;;;;;17.87;9.07;;;;;;;;;;5024594;28;20186;-80
2022/11/29 10:22:17;;;;;;;19.43;9.10;;;;;;;;;;5023491;28;20199;-80
2022/11/29 10:24:45;;;;;;;17.63;8.47;;;;;;;;;;5019458;28;20626;-80
2022/11/29 10:27:12;;;;;;;14.73;9.23;;;;;;;;;;5018523;28;20198;-81
2022/11/29 10:29:38;;;;;;;19.33;9.33;;;;;;;;;;5006476;28;20190;-81
2022/11/29 10:32:10;;;;;;;19.70;9.50;;;;;;;;;;5019681;28;20206;-80
2022/11/29 10:34:35;;;;;;;16.10;9.67;;;;;;;;;;5023520;28;20262;-80
2022/11/29 10:37:01;;;;;;;21.13;9.53;;;;;;;;;;5030650;28;20193;-79
2022/11/29 10:39:29;;;;;;;15.90;9.33;;;;;;;;;;5023739;28;20191;-80
2022/11/29 10:41:56;;;;;;;22.37;10.57;;;;;;;;;;5022221;28;20279;-80
2022/11/29 10:44:22;;;;;;;13.90;8.03;;;;;;;;;;5026640;28;20195;-80
2022/11/29 10:46:47;;;;;;;15.83;8.17;;;;;;;;;;5024185;28;20205;-80
2022/11/29 10:49:14;;;;;;;13.93;8.40;;;;;;;;;;5022450;28;20175;-81
2022/11/29 10:51:39;;;;;;;14.03;8.03;;;;;;;;;;5025992;28;20221;-80
2022/11/29 10:54:34;;;;;;;17.37;9.57;;;;;;;;;;5017269;28;20187;-80
2022/11/29 10:57:00;;;;;;;19.63;10.00;;;;;;;;;;4988527;28;20256;-80
2022/11/29 10:59:27;;;;;;;14.17;9.23;;;;;;;;;;5011759;28;20274;-81
2022/11/29 11:01:53;;;;;;;17.58;9.90;;;;;;;;;;5004854;28;20287;-80
2022/11/29 11:04:30;;;;;;;15.45;9.07;;;;;;;;;;5008854;28;20707;-81
2022/11/29 11:06:56;;;;;;;15.73;9.13;;;;;;;;;;5020842;28;20309;-80
2022/11/29 11:09:41;;;;;;;16.77;8.52;;;;;;;;;;5013082;28;20516;-81
2022/11/29 11:12:17;;;;;;;13.40;7.75;;;;;;;;;;4999597;28;20211;-81
2022/11/29 11:14:43;;;;;;;14.43;8.70;;;;;;;;;;5020308;28;20241;-81
2022/11/29 11:17:14;;;;;;;12.50;8.38;;;;;;;;;;5021577;28;20183;-80
2022/11/29 11:19:40;;;;;;;13.80;8.48;;;;;;;;;;5028836;28;20662;-80
2022/11/29 11:22:05;;;;;;;13.82;8.93;;;;;;;;;;4996985;28;20313;-80
2022/11/29 11:24:32;;;;;;;13.98;8.25;;;;;;;;;;5017308;28;20206;-80
2022/11/29 11:26:57;;;;;;;19.88;9.77;;;;;;;;;;5000503;28;20274;-80
2022/11/29 11:29:34;;;;;;;16.40;9.25;;;;;;;;;;5019629;28;20273;-81
2022/11/29 11:31:59;;;;;;;15.60;8.93;;;;;;;;;;5005231;28;20214;-81
2022/11/29 11:34:26;;;;;;;18.33;9.15;;;;;;;;;;5014257;28;20186;-81
2022/11/29 11:36:52;;;;;;;13.95;9.88;;;;;;;;;;5006348;28;20187;-80
2022/11/29 11:39:21;;;;;;;13.20;8.77;;;;;;;;;;5018509;28;20182;-81
2022/11/29 11:44:44;;;;;;;18.35;9.82;;;;;;;;;;5017224;28;20269;-80
2022/11/29 11:47:14;;;;;;;14.97;9.73;;;;;;;;;;4993965;28;20183;-80
2022/11/29 11:49:52;;;;;;;14.02;8.93;;;;;;;;;;5023506;28;20174;-80
2022/11/29 11:52:19;;;;;;;18.77;9.95;;;;;;;;;;5017485;28;20209;-81
2022/11/29 11:54:48;;;;;;;15.50;9.65;;;;;;;;;;5004670;28;20200;-80
2022/11/29 11:57:17;;;;;;;19.73;9.23;;;;;;;;;;5022302;28;20198;-80
2022/11/29 11:59:46;;;;;;;16.58;9.07;;;;;;;;;;5019572;28;20644;-80
2022/11/29 12:02:25;;;;;;;15.05;9.00;;;;;;;;;;5003408;28;20638;-81
2022/11/29 12:04:50;;;;;;;15.20;9.38;;;;;;;;;;4998842;28;20206;-80
2022/11/29 12:07:29;;;;;;;15.38;9.13;;;;;;;;;;5020376;28;20229;-80
2022/11/29 12:09:56;;;;;;;16.95;9.73;;;;;;;;;;5023260;28;20178;-80
2022/11/29 12:12:26;;;;;;;18.05;9.93;;;;;;;;;;5018327;28;20207;-81
2022/11/29 12:14:56;;;;;;;19.25;11.68;;;;;;;;;;5024607;28;20213;-80
2022/11/29 12:17:40;;;;;;;17.77;10.55;;;;;;;;;;5016350;28;20236;-81
2022/11/29 12:20:23;;;;;;;17.85;10.68;;;;;;;;;;5013722;28;20259;-80
2022/11/29 12:22:54;;;;;;;15.65;9.50;;;;;;;;;;5019901;28;20528;-80
2022/11/29 12:25:25;;;;;;;18.52;11.07;;;;;;;;;;5018386;28;20214;-82
2022/11/29 12:27:51;;;;;;;18.05;11.07;;;;;;;;;;5000247;28;21070;-81
2022/11/29 12:30:19;;;;;;;21.55;11.85;;;;;;;;;;5006728;28;20257;-81
2022/11/29 12:32:53;;;;;;;17.10;10.95;;;;;;;;;;5015166;28;20209;-80
2022/11/29 12:35:18;;;;;;;17.52;9.80;;;;;;;;;;5025577;28;20184;-81
2022/11/29 12:37:58;;;;;;;14.38;8.55;;;;;;;;;;4997279;28;20254;-81
2022/11/29 12:40:42;;;;;;;14.32;9.13;;;;;;;;;;5025448;28;20182;-81
2022/11/29 12:43:17;;;;;;;19.40;9.52;;;;;;;;;;5017602;28;20293;-81
2022/11/29 12:46:07;;;;;;;16.83;10.32;;;;;;;;;;5024803;28;20237;-81
2022/11/29 12:48:39;;;;;;;15.45;9.45;;;;;;;;;;4998143;28;20202;-83
2022/11/29 12:51:13;;;;;;;19.55;10.55;;;;;;;;;;4999286;28;20385;-79
2022/11/29 12:53:38;;;;;;;19.42;11.00;;;;;;;;;;5005377;28;20258;-80
2022/11/29 12:56:07;;;;;;;17.77;9.55;;;;;;;;;;5010308;28;20201;-80
2022/11/29 12:58:47;;;;;;;16.13;10.15;;;;;;;;;;5005073;28;20262;-80
2022/11/29 13:01:13;;;;;;;14.25;9.80;;;;;;;;;;5025801;28;20238;-79
2022/11/29 13:03:57;;;;;;;19.20;10.35;;;;;;;;;;5018883;28;20191;-78
2022/11/29 13:06:30;;;;;;;16.53;9.53;;;;;;;;;;5008022;28;20179;-80
2022/11/29 13:09:11;;;;;;;14.88;9.48;;;;;;;;;;5017528;28;20179;-81
2022/11/29 13:11:38;;;;;;;18.05;10.38;;;;;;;;;;5019278;28;20295;-80
2022/11/29 13:14:10;;;;;;;19.83;11.40;;;;;;;;;;5024057;28;20234;-80
2022/11/29 13:16:44;;;;;;;18.80;10.87;;;;;;;;;;5023080;28;20187;-81
2022/11/29 13:19:27;;;;;;;16.10;9.70;;;;;;;;;;5025654;28;20187;-80
2022/11/29 13:22:04;;;;;;;17.73;9.48;;;;;;;;;;5021891;28;20202;-81
2022/11/29 13:24:32;;;;;;;16.55;10.38;;;;;;;;;;5025914;28;20198;-81
2022/11/29 13:27:00;;;;;;;17.10;10.48;;;;;;;;;;5020284;28;20170;-81
2022/11/29 13:29:25;;;;;;;17.77;9.85;;;;;;;;;;5015050;28;20217;-81
2022/11/29 13:34:29;;;;;;;18.53;9.33;;;;;;;;;;5011657;28;20646;-73
2022/11/29 13:37:14;;;;;;;17.35;9.57;;;;;;;;;;5012522;28;20194;-72
2022/11/29 13:39:45;;;;;;;21.50;10.77;;;;;;;;;;5011463;28;20179;-72
2022/11/29 13:42:29;;;;;;;17.63;9.93;;;;;;;;;;5013003;28;20207;-73
2022/11/29 13:45:06;;;;;;;18.43;10.27;;;;;;;;;;5010401;28;20654;-72
2022/11/29 13:47:31;;;;;;;18.00;10.10;;;;;;;;;;5011995;28;20551;-72
2022/11/29 13:49:58;;;;;;;15.37;10.33;;;;;;;;;;5015760;28;20181;-72
2022/11/29 13:52:27;;;;;;;14.80;10.27;;;;;;;;;;4993548;28;20282;-72
2022/11/29 13:55:04;;;;;;;17.63;9.17;;;;;;;;;;5013167;28;20649;-72
2022/11/29 13:57:45;;;;;;;20.40;11.47;;;;;;;;;;5011681;28;20182;-72
2022/11/29 14:00:38;;;;;;;13.80;8.90;;;;;;;;;;5014578;28;20175;-72
2022/11/29 14:03:19;;;;;;;16.30;9.13;;;;;;;;;;4956264;28;20210;-72
2022/11/29 14:05:45;;;;;;;17.20;10.67;;;;;;;;;;4988909;28;20556;-72
2022/11/29 14:08:25;;;;;;;15.93;10.43;;;;;;;;;;4995807;28;20187;-72
2022/11/29 14:10:53;;;;;;;17.17;10.50;;;;;;;;;;4993958;28;20171;-73
2022/11/29 14:13:20;;;;;;;17.33;10.83;;;;;;;;;;4991158;28;20249;-72
2022/11/29 14:15:52;;;;;;;19.90;10.67;;;;;;;;;;5012936;28;20621;-73
2022/11/29 14:18:36;;;;;;;22.00;12.02;;;;;;;;;;4994566;28;20213;-72
2022/11/29 14:21:01;;;;;;;17.83;11.07;;;;;;;;;;5010981;28;20187;-72
2022/11/29 14:23:30;;;;;;;19.33;13.10;;;;;;;;;;5013884;28;20263;-72
2022/11/29 14:25:56;;;;;;;19.88;13.45;;;;;;;;;;5011288;28;20237;-72
2022/11/29 14:28:21;;;;;;;22.88;12.55;;;;;;;;;;5010623;28;20179;-72
2022/11/29 14:30:48;;;;;;;20.25;12.48;;;;;;;;;;5012782;28;20175;-72
2022/11/29 14:33:27;;;;;;;22.45;12.77;;;;;;;;;;5013008;28;20460;-73
2022/11/29 14:36:01;;;;;;;21.63;12.67;;;;;;;;;;5006533;28;20179;-72
2022/11/29 14:38:56;;;;;;;18.73;11.77;;;;;;;;;;5011994;28;20239;-72
2022/11/29 14:41:27;;;;;;;23.70;12.23;;;;;;;;;;4954907;28;20212;-73
2022/11/29 14:44:13;;;;;;;18.90;12.43;;;;;;;;;;5011855;28;20696;-72
2022/11/29 14:46:38;;;;;;;21.53;14.47;;;;;;;;;;5016158;28;20183;-72
2022/11/29 14:49:04;;;;;;;23.25;12.38;;;;;;;;;;5014226;28;20191;-72
2022/11/29 14:51:30;;;;;;;23.50;13.73;;;;;;;;;;5011345;28;20603;-72
2022/11/29 14:54:12;;;;;;;20.33;13.57;;;;;;;;;;5008816;28;20245;-73